Time;durP1;ratioP1;P1;durP2;ratioP2;P2;SDS_P1;SDS_P2;PMS_P1;PMS_P2;Temp;Humidity;BMP_temperature;BMP_pressure;BME280_temperature;BME280_humidity;BME280_pressure;Samples;Min_cycle;Max_cycle;Signal;HPM_P1;HPM_P2
2023/09/09 00:02:20;;;;;;;16.13;14.50;;;;;;;20.61;100.00;101567.41;5131461;27;20039;-37
2023/09/09 00:04:45;;;;;;;16.25;14.55;;;;;;;20.60;100.00;101563.03;5130565;27;20027;-37
2023/09/09 00:07:11;;;;;;;15.90;14.50;;;;;;;20.57;100.00;101569.91;5131296;27;20031;-37
2023/09/09 00:09:38;;;;;;;16.17;14.70;;;;;;;20.46;100.00;101555.34;5123345;27;20353;-37
2023/09/09 00:12:04;;;;;;;17.80;16.20;;;;;;;20.57;100.00;101565.22;5117825;28;20031;-37
2023/09/09 00:14:30;;;;;;;18.42;16.77;;;;;;;20.50;100.00;101564.72;5116835;28;20024;-37
2023/09/09 00:16:57;;;;;;;18.17;16.58;;;;;;;20.49;100.00;101562.22;5116526;28;20109;-37
2023/09/09 00:19:24;;;;;;;20.90;19.00;;;;;;;20.47;100.00;101558.94;5116789;28;20031;-37
2023/09/09 00:21:49;;;;;;;21.15;19.25;;;;;;;20.44;100.00;101560.28;5117068;28;20387;-37
2023/09/09 00:24:15;;;;;;;22.30;20.20;;;;;;;20.35;100.00;101563.88;5117240;28;20028;-37
2023/09/09 00:26:41;;;;;;;21.25;19.23;;;;;;;20.35;100.00;101561.13;5116727;28;20028;-37
2023/09/09 00:29:06;;;;;;;22.48;20.40;;;;;;;20.33;100.00;101559.50;5116621;28;20027;-37
2023/09/09 00:31:32;;;;;;;23.15;20.92;;;;;;;20.31;100.00;101560.91;5117457;28;20055;-36
2023/09/09 00:33:57;;;;;;;22.52;20.42;;;;;;;20.42;100.00;101556.19;5116516;27;20047;-37
2023/09/09 00:36:22;;;;;;;23.23;21.05;;;;;;;20.32;100.00;101562.53;5117021;28;20023;-36
2023/09/09 00:38:48;;;;;;;23.50;21.33;;;;;;;20.27;100.00;101555.13;5116675;28;20467;-36
2023/09/09 00:41:17;;;;;;;23.40;21.30;;;;;;;20.33;100.00;101559.50;5116407;28;20066;-36
2023/09/09 00:43:46;;;;;;;23.02;20.73;;;;;;;20.24;100.00;101547.44;5116940;28;20348;-36
2023/09/09 00:46:13;;;;;;;22.02;20.13;;;;;;;20.13;100.00;101543.06;5115943;28;20024;-36
2023/09/09 00:48:39;;;;;;;23.48;21.30;;;;;;;20.21;100.00;101560.91;5116853;28;20076;-36
2023/09/09 00:51:05;;;;;;;22.95;20.88;;;;;;;20.19;100.00;101558.44;5116163;28;20031;-36
2023/09/09 00:53:34;;;;;;;24.65;21.33;;;;;;;20.14;100.00;101552.94;5117017;28;20032;-36
2023/09/09 00:56:01;;;;;;;24.63;21.73;;;;;;;20.10;100.00;101553.78;5116335;28;20024;-37
2023/09/09 00:58:30;;;;;;;22.05;20.05;;;;;;;20.17;100.00;101560.66;5115838;28;20065;-37
2023/09/09 01:00:55;;;;;;;22.45;20.45;;;;;;;20.13;100.00;101554.06;5116524;28;20035;-37
2023/09/09 01:03:21;;;;;;;24.30;21.80;;;;;;;20.17;100.00;101560.66;5116286;27;20036;-36
2023/09/09 01:05:47;;;;;;;26.83;24.42;;;;;;;20.01;100.00;101548.06;5115588;28;20055;-37
2023/09/09 01:08:23;;;;;;;26.20;23.67;;;;;;;20.01;100.00;101556.28;5115829;28;20492;-37
2023/09/09 01:10:48;;;;;;;25.98;23.58;;;;;;;20.00;100.00;101566.44;5116151;27;20055;-37
2023/09/09 01:13:14;;;;;;;25.60;23.33;;;;;;;19.90;100.00;101552.72;5116090;28;20027;-37
2023/09/09 01:15:39;;;;;;;26.35;23.73;;;;;;;19.91;100.00;101559.88;5115978;28;20030;-37
2023/09/09 01:18:04;;;;;;;27.10;24.50;;;;;;;20.01;100.00;101559.84;5115896;28;20499;-37
2023/09/09 01:20:35;;;;;;;26.10;23.77;;;;;;;19.95;100.00;101560.94;5115164;28;20467;-37
2023/09/09 01:23:01;;;;;;;26.73;24.13;;;;;;;19.87;100.00;101561.53;5115505;28;20456;-37
2023/09/09 01:25:26;;;;;;;25.63;23.33;;;;;;;19.85;100.00;101558.22;5115256;28;20027;-37
2023/09/09 01:27:52;;;;;;;24.48;22.27;;;;;;;19.83;100.00;101557.69;5116041;28;20459;-37
2023/09/09 01:30:17;;;;;;;24.60;22.35;;;;;;;19.81;100.00;101557.13;5115417;27;20387;-37
2023/09/09 01:32:42;;;;;;;24.73;22.52;;;;;;;19.70;100.00;101534.34;5115969;28;20028;-37
2023/09/09 01:35:08;;;;;;;24.52;22.33;;;;;;;19.75;100.00;101555.47;5115293;28;20028;-37
2023/09/09 01:37:33;;;;;;;25.60;23.20;;;;;;;19.70;100.00;101550.81;5115853;28;20128;-37
2023/09/09 01:40:09;;;;;;;24.15;22.00;;;;;;;19.67;100.00;101554.13;5115752;28;20024;-37
2023/09/09 01:42:34;;;;;;;26.40;23.98;;;;;;;19.69;100.00;101540.94;5116065;28;20067;-37
2023/09/09 01:45:00;;;;;;;26.83;24.13;;;;;;;19.79;100.00;101556.56;5115098;28;20109;-37
2023/09/09 01:47:25;;;;;;;28.23;25.63;;;;;;;19.67;100.00;101548.63;5114835;28;20027;-37
2023/09/09 01:49:50;;;;;;;25.63;23.23;;;;;;;19.63;100.00;101549.47;5115110;28;20027;-37
2023/09/09 01:52:16;;;;;;;29.02;26.33;;;;;;;19.55;100.00;101553.53;5115845;28;20032;-37
2023/09/09 01:54:41;;;;;;;28.10;25.42;;;;;;;19.55;100.00;101546.13;5114937;28;20027;-37
2023/09/09 01:57:06;;;;;;;26.05;23.67;;;;;;;19.58;100.00;101553.00;5115483;28;20023;-37
2023/09/09 01:59:32;;;;;;;29.77;26.83;;;;;;;19.51;100.00;101553.25;5115108;28;20027;-37
2023/09/09 02:01:57;;;;;;;31.13;28.27;;;;;;;19.49;100.00;101551.88;5114846;28;20028;-37
2023/09/09 02:04:23;;;;;;;31.55;28.52;;;;;;;19.44;100.00;101551.88;5114771;28;20027;-37
2023/09/09 02:06:48;;;;;;;32.83;29.77;;;;;;;19.40;100.00;101556.25;5115098;28;20028;-37
2023/09/09 02:09:13;;;;;;;35.65;32.30;;;;;;;19.42;100.00;101551.31;5114969;28;20027;-37
2023/09/09 02:11:39;;;;;;;35.90;32.50;;;;;;;19.44;100.00;101551.88;5115232;28;20094;-37
2023/09/09 02:14:04;;;;;;;34.15;30.95;;;;;;;19.52;100.00;101543.94;5114597;28;20387;-37
2023/09/09 02:16:29;;;;;;;34.13;30.73;;;;;;;19.32;100.00;101535.69;5114238;28;20103;-37
2023/09/09 02:18:55;;;;;;;34.25;31.05;;;;;;;19.32;100.00;101538.41;5114030;28;20080;-37
2023/09/09 02:21:20;;;;;;;33.15;30.13;;;;;;;19.35;100.00;101542.56;5115293;28;20088;-37
2023/09/09 02:23:45;;;;;;;31.30;28.23;;;;;;;19.40;100.00;101546.13;5115224;28;20055;-37
2023/09/09 02:26:11;;;;;;;33.63;30.52;;;;;;;19.41;100.00;101546.94;5114752;28;20032;-37
2023/09/09 02:28:36;;;;;;;33.22;30.02;;;;;;;19.40;100.00;101545.28;5115218;28;20043;-37
2023/09/09 02:31:02;;;;;;;32.38;29.10;;;;;;;19.44;100.00;101547.22;5114618;28;20070;-37
2023/09/09 02:33:27;;;;;;;32.28;29.08;;;;;;;19.36;100.00;101550.50;5114116;28;20131;-37
2023/09/09 02:35:52;;;;;;;32.42;29.45;;;;;;;19.28;100.00;101543.66;5114320;28;20028;-38
2023/09/09 02:38:18;;;;;;;31.73;28.80;;;;;;;19.33;100.00;101548.31;5114215;28;20027;-37
2023/09/09 02:40:43;;;;;;;33.72;30.42;;;;;;;19.23;100.00;101549.13;5114167;28;20391;-37
2023/09/09 02:43:10;;;;;;;35.40;31.70;;;;;;;19.32;100.00;101543.09;5114451;28;20169;-37
2023/09/09 02:45:37;;;;;;;38.05;34.42;;;;;;;19.29;100.00;101545.28;5114348;28;20468;-37
2023/09/09 02:48:02;;;;;;;38.25;34.45;;;;;;;19.39;100.00;101538.16;5114687;28;20032;-37
2023/09/09 02:50:28;;;;;;;39.13;35.20;;;;;;;19.43;100.00;101550.25;5113980;28;20030;-37
2023/09/09 02:52:53;;;;;;;39.20;35.40;;;;;;;19.46;100.00;101547.75;5114404;28;20035;-37
2023/09/09 02:55:18;;;;;;;41.22;37.25;;;;;;;19.46;100.00;101547.75;5114003;28;20031;-37
2023/09/09 02:57:50;;;;;;;42.28;37.97;;;;;;;19.45;100.00;101553.53;5113805;28;20073;-37
2023/09/09 03:00:16;;;;;;;46.63;41.90;;;;;;;19.30;100.00;101541.44;5114008;28;20027;-37
2023/09/09 03:02:44;;;;;;;41.40;37.28;;;;;;;19.43;100.00;101550.25;5114028;28;20073;-37
2023/09/09 03:05:10;;;;;;;44.97;40.50;;;;;;;19.30;100.00;101546.94;5113903;28;20031;-37
2023/09/09 03:07:35;;;;;;;50.53;45.33;;;;;;;19.22;100.00;101547.44;5114474;28;20077;-37
2023/09/09 03:10:01;;;;;;;47.80;42.90;;;;;;;19.17;100.00;101552.94;5113564;28;20402;-37
2023/09/09 03:12:27;;;;;;;52.90;47.60;;;;;;;19.14;100.00;101550.75;5114199;28;20039;-37
2023/09/09 03:14:52;;;;;;;53.85;48.22;;;;;;;19.11;100.00;101544.97;5113836;28;20027;-37
2023/09/09 03:17:18;;;;;;;53.88;48.63;;;;;;;19.06;100.00;101554.00;5114029;28;20069;-37
2023/09/09 03:19:43;;;;;;;52.55;47.30;;;;;;;19.04;100.00;101542.50;5113837;28;20027;-37
2023/09/09 03:22:08;;;;;;;53.78;48.17;;;;;;;18.96;100.00;101543.03;5114627;28;20077;-37
2023/09/09 03:24:34;;;;;;;52.25;47.05;;;;;;;18.96;100.00;101543.03;5113739;28;20024;-37
2023/09/09 03:26:59;;;;;;;49.47;44.47;;;;;;;18.98;100.00;101546.31;5113731;28;20031;-37
2023/09/09 03:29:24;;;;;;;49.58;44.67;;;;;;;18.95;100.00;101541.38;5114299;28;20036;-37
2023/09/09 03:31:50;;;;;;;48.97;44.20;;;;;;;18.88;100.00;101552.59;5113729;28;20027;-37
2023/09/09 03:34:15;;;;;;;53.13;47.65;;;;;;;18.85;100.00;101549.59;5113392;28;20030;-37
2023/09/09 03:36:42;;;;;;;50.40;45.35;;;;;;;18.79;100.00;101551.47;5113663;28;20050;-37
2023/09/09 03:39:08;;;;;;;49.65;44.63;;;;;;;18.70;100.00;101553.09;5113538;28;20063;-37
2023/09/09 03:41:33;;;;;;;49.45;44.55;;;;;;;18.70;100.00;101548.44;5113935;28;20055;-37
2023/09/09 03:43:58;;;;;;;50.75;45.55;;;;;;;18.69;100.00;101551.41;5113965;28;20480;-37
2023/09/09 03:46:24;;;;;;;50.17;45.17;;;;;;;18.64;100.00;101548.63;5118277;28;20027;-37
2023/09/09 03:48:50;;;;;;;50.72;45.25;;;;;;;18.60;100.00;101545.63;5117359;28;20031;-37
2023/09/09 03:51:15;;;;;;;48.53;43.58;;;;;;;18.51;100.00;101542.56;5117926;28;20024;-37
2023/09/09 03:53:41;;;;;;;45.65;41.15;;;;;;;18.54;100.00;101543.94;5117369;28;20031;-37
2023/09/09 03:56:06;;;;;;;47.53;42.83;;;;;;;18.44;100.00;101544.72;5117598;28;20028;-37
2023/09/09 03:58:32;;;;;;;46.40;41.70;;;;;;;18.44;100.00;101541.97;5117667;28;20122;-37
2023/09/09 04:01:10;;;;;;;48.88;43.97;;;;;;;18.49;100.00;101552.94;5117206;28;20024;-37
2023/09/09 04:03:36;;;;;;;45.78;41.00;;;;;;;18.40;100.00;101557.31;5117137;28;20481;-37
2023/09/09 04:06:10;;;;;;;45.42;40.78;;;;;;;18.34;100.00;101552.88;5117344;28;20046;-37
2023/09/09 04:08:36;;;;;;;46.22;41.63;;;;;;;18.33;100.00;101558.63;5117064;28;20032;-37
2023/09/09 04:11:03;;;;;;;46.08;41.60;;;;;;;18.31;100.00;101555.34;5116994;28;20184;-37
2023/09/09 04:13:28;;;;;;;45.28;40.83;;;;;;;18.23;100.00;101549.25;5116744;28;20102;-37
2023/09/09 04:15:54;;;;;;;;;;;;;;;18.43;100.00;101555.94;5117888;28;20114;-37
2023/09/09 04:18:20;;;;;;;46.58;42.03;;;;;;;18.20;100.00;101560.75;5117089;28;20278;-37
2023/09/09 04:20:45;;;;;;;46.10;41.60;;;;;;;18.18;100.00;101562.09;5117035;28;20027;-37
2023/09/09 04:23:11;;;;;;;50.13;44.92;;;;;;;18.21;100.00;101558.84;5117048;28;20028;-37
2023/09/09 04:25:36;;;;;;;;;;;;;;;18.35;100.00;101557.28;5116869;28;20055;-37
2023/09/09 04:28:01;;;;;;;47.35;42.42;;;;;;;18.18;100.00;101560.19;5116740;28;20378;-37
2023/09/09 04:30:27;;;;;;;48.40;43.55;;;;;;;18.13;100.00;101560.16;5116588;28;20023;-37
2023/09/09 04:32:52;;;;;;;50.53;45.40;;;;;;;18.23;100.00;101556.66;5116803;28;20034;-37
2023/09/09 04:35:17;;;;;;;;;;;;;;;18.35;100.00;101553.69;5117200;28;20073;-37
2023/09/09 04:37:43;;;;;;;51.50;46.30;;;;;;;17.99;100.00;101542.53;5116764;28;20397;-37
2023/09/09 04:40:10;;;;;;;53.55;48.03;;;;;;;17.97;100.00;101545.56;5116434;27;20019;-37
2023/09/09 04:42:35;;;;;;;50.35;45.28;;;;;;;18.00;100.00;101560.59;5117230;28;20028;-37
2023/09/09 04:45:01;;;;;;;;;;;;;;;18.15;100.00;101559.88;5116814;28;20035;-37
2023/09/09 04:47:26;;;;;;;48.67;43.58;;;;;;;17.96;100.00;101565.81;5116862;28;20354;-37
2023/09/09 04:49:51;;;;;;;49.15;44.35;;;;;;;17.91;100.00;101567.66;5116739;28;20024;-37
2023/09/09 04:52:17;;;;;;;50.13;45.03;;;;;;;17.77;100.00;101550.88;5116498;28;20027;-37
2023/09/09 04:54:45;;;;;;;;;;;;;;;18.02;100.00;101561.19;5116265;28;20499;-37
2023/09/09 04:57:10;;;;;;;46.67;41.97;;;;;;;17.86;100.00;101564.88;5115840;28;20033;-37
2023/09/09 04:59:35;;;;;;;;;;;;;;;17.96;100.00;101570.44;5117261;27;20442;-37
2023/09/09 05:02:01;;;;;;;48.60;43.80;;;;;;;17.75;100.00;101567.53;5116282;28;20447;-37
2023/09/09 05:04:26;;;;;;;49.80;44.70;;;;;;;17.71;100.00;101573.75;5115942;27;20037;-37
2023/09/09 05:06:53;;;;;;;49.53;44.47;;;;;;;17.82;100.00;101577.47;5116496;28;20028;-37
2023/09/09 05:09:19;;;;;;;60.50;48.85;;;;;;;17.78;100.00;101571.69;5115507;28;20027;-37
2023/09/09 05:11:44;;;;;;;;;;;;;;;17.96;100.00;101576.75;5117193;28;20038;-37
2023/09/09 05:14:09;;;;;;;53.73;48.27;;;;;;;17.86;100.00;101576.66;5116300;28;19911;-37
2023/09/09 05:16:36;;;;;;;;;;;;;;;18.00;100.00;101568.81;5117062;28;20253;-37
2023/09/09 05:19:02;;;;;;;57.92;51.65;;;;;;;17.89;100.00;101572.56;5115599;28;19934;-37
2023/09/09 05:21:27;;;;;;;;;;;;;;;18.05;100.00;101581.72;5116988;28;20040;-37
2023/09/09 05:23:53;;;;;;;65.35;52.15;;;;;;;17.92;100.00;101585.75;5116139;28;20017;-37
2023/09/09 05:26:19;;;;;;;63.38;54.30;;;;;;;17.79;100.00;101575.22;5115641;28;20457;-37
2023/09/09 05:28:44;;;;;;;96.28;55.15;;;;;;;17.76;100.00;101587.50;5115791;28;20035;-37
2023/09/09 05:31:09;;;;;;;117.63;59.35;;;;;;;17.72;100.00;101581.72;5115065;28;20020;-37
2023/09/09 05:33:35;;;;;;;;;;;;;;;17.90;100.00;101580.50;5116427;28;20032;-37
2023/09/09 05:36:00;;;;;;;126.90;57.00;;;;;;;17.78;100.00;101584.53;5115308;28;20359;-37
2023/09/09 05:38:26;;;;;;;;;;;;;;;17.94;100.00;101583.56;5116270;28;20736;-37
2023/09/09 05:40:52;;;;;;;130.95;61.20;;;;;;;17.78;100.00;101590.00;5115792;28;19911;-37
2023/09/09 05:43:18;;;;;;;;;;;;;;;17.94;100.00;101589.84;5116545;28;20034;-37
2023/09/09 05:45:43;;;;;;;161.53;68.30;;;;;;;17.91;100.00;101592.28;5114795;28;19912;-37
2023/09/09 05:48:08;;;;;;;254.57;75.40;;;;;;;17.80;100.00;101577.69;5114884;28;20024;-37
2023/09/09 05:50:33;;;;;;;;;;;;;;;18.07;100.00;101588.59;5115298;28;20399;-37
2023/09/09 05:52:59;;;;;;;191.20;71.80;;;;;;;17.98;100.00;101588.25;5115073;28;20360;-37
2023/09/09 05:55:24;;;;;;;;;;;;;;;18.12;100.00;101591.34;5115957;28;20027;-37
2023/09/09 05:57:49;;;;;;;302.08;71.65;;;;;;;17.87;100.00;101582.97;5115501;28;20360;-37
2023/09/09 06:00:15;;;;;;;;;;;;;;;18.10;100.00;101592.69;5115380;27;20023;-42
2023/09/09 06:02:40;;;;;;;108.40;61.80;;;;;;;18.01;100.00;101593.19;5115721;28;20440;-37
2023/09/09 06:05:06;;;;;;;;;;;;;;;18.11;100.00;101600.66;5115505;28;20528;-37
2023/09/09 06:07:31;;;;;;;118.40;61.78;;;;;;;17.95;100.00;101601.63;5113929;28;19912;-37
2023/09/09 06:09:56;;;;;;;;;;;;;;;18.12;100.00;101604.22;5115396;28;20138;-37
2023/09/09 06:12:22;;;;;;;97.07;61.63;;;;;;;17.97;100.00;101604.94;5115550;28;20346;-37
2023/09/09 06:14:47;;;;;;;;;;;;;;;18.15;100.00;101609.16;5114630;28;20301;-37
2023/09/09 06:17:13;;;;;;;119.63;58.47;;;;;;;17.96;100.00;101612.31;5114745;28;19919;-37
2023/09/09 06:19:38;;;;;;;;;;;;;;;18.16;100.00;101614.38;5114924;28;20284;-37
2023/09/09 06:22:03;;;;;;;100.87;58.57;;;;;;;18.01;100.00;101617.81;5115383;28;19994;-37
2023/09/09 06:24:29;;;;;;;;;;;;;;;18.20;100.00;101620.97;5114556;28;20309;-37
2023/09/09 06:26:54;;;;;;;91.38;59.85;;;;;;;18.01;100.00;101617.00;5114453;28;19907;-37
2023/09/09 06:29:20;;;;;;;;;;;;;;;18.22;100.00;101627.00;5115123;28;20031;-37
2023/09/09 06:31:45;;;;;;;89.15;57.55;;;;;;;18.13;100.00;101614.88;5114605;28;19961;-37
2023/09/09 06:34:11;;;;;;;;;;;;;;;18.30;100.00;101624.84;5114951;28;20102;-37
2023/09/09 06:36:36;;;;;;;72.78;57.22;;;;;;;18.19;100.00;101629.44;5114656;28;19973;-37
2023/09/09 06:39:03;;;;;;;;;;;;;;;18.34;100.00;101631.44;5114271;28;20027;-37
2023/09/09 06:41:28;;;;;;;61.88;54.58;;;;;;;18.18;100.00;101628.63;5114207;28;19911;-37
2023/09/09 06:43:53;;;;;;;59.35;53.35;;;;;;;18.31;100.00;101629.25;5114753;28;20028;-38
2023/09/09 06:46:19;;;;;;;62.75;56.35;;;;;;;18.30;100.00;101631.19;5114687;28;20031;-38
2023/09/09 06:48:44;;;;;;;57.58;51.65;;;;;;;18.37;100.00;101636.41;5114439;28;20463;-38
2023/09/09 06:51:10;;;;;;;61.42;55.15;;;;;;;18.38;100.00;101629.84;5114110;28;20028;-36
2023/09/09 06:53:35;;;;;;;;;;;;;;;18.58;100.00;101637.34;5114984;28;20028;-36
2023/09/09 06:56:00;;;;;;;59.67;53.88;;;;;;;18.46;100.00;101635.66;5113932;28;19973;-36
2023/09/09 06:58:26;;;;;;;60.67;54.58;;;;;;;18.47;100.00;101650.16;5114489;28;20134;-36
2023/09/09 07:00:52;;;;;;;60.50;54.42;;;;;;;18.43;100.00;101640.81;5113750;28;20032;-36
2023/09/09 07:03:19;;;;;;;61.72;55.42;;;;;;;18.39;100.00;101646.00;5114155;28;20081;-36
2023/09/09 07:05:44;;;;;;;58.30;52.78;;;;;;;18.47;100.00;101658.38;5114199;28;20028;-37
2023/09/09 07:08:10;;;;;;;;;;;;;;;18.69;100.00;101652.78;5114698;28;20030;-37
2023/09/09 07:10:35;;;;;;;51.28;46.20;;;;;;;18.59;100.00;101653.50;5114677;28;20002;-37
2023/09/09 07:13:00;;;;;;;61.92;55.67;;;;;;;18.55;100.00;101640.63;5114171;28;20038;-37
2023/09/09 07:15:25;;;;;;;;;;;;;;;18.83;100.00;101656.69;5114310;28;20043;-37
2023/09/09 07:17:51;;;;;;;61.00;54.83;;;;;;;18.64;100.00;101648.09;5113849;28;20355;-37
2023/09/09 07:20:16;;;;;;;63.72;57.50;;;;;;;18.74;100.00;101653.66;5116287;28;20031;-37
2023/09/09 07:22:42;;;;;;;62.35;56.30;;;;;;;18.81;100.00;101658.88;5118303;28;20058;-37
2023/09/09 07:25:08;;;;;;;52.40;47.22;;;;;;;19.02;100.00;101657.06;5117795;28;20039;-37
2023/09/09 07:27:33;;;;;;;58.75;53.05;;;;;;;19.09;100.00;101660.38;5118703;28;20042;-37
2023/09/09 07:29:59;;;;;;;61.65;55.63;;;;;;;19.12;100.00;101657.09;5117564;27;20020;-37
2023/09/09 07:32:24;;;;;;;64.80;58.42;;;;;;;19.16;100.00;101655.47;5117808;28;20468;-35
2023/09/09 07:34:50;;;;;;;62.92;56.95;;;;;;;19.38;100.00;101659.94;5117255;28;20474;-36
2023/09/09 07:37:16;;;;;;;65.10;58.75;;;;;;;19.44;100.00;101664.34;5117545;28;20123;-37
2023/09/09 07:39:45;;;;;;;65.82;59.47;;;;;;;19.34;100.00;101653.34;5118008;28;20039;-37
2023/09/09 07:42:12;;;;;;;65.25;58.90;;;;;;;19.44;100.00;101664.34;5117817;28;20063;-37
2023/09/09 07:44:37;;;;;;;60.20;54.50;;;;;;;19.67;100.00;101668.53;5117140;28;20395;-37
2023/09/09 07:47:06;;;;;;;65.38;59.00;;;;;;;19.69;100.00;101667.16;5117410;28;20023;-37
2023/09/09 07:49:33;;;;;;;63.85;57.67;;;;;;;19.82;100.00;101671.31;5117366;28;20028;-37
2023/09/09 07:51:58;;;;;;;58.92;53.20;;;;;;;20.01;100.00;101666.91;5117348;28;20026;-37
2023/09/09 07:54:23;;;;;;;62.55;56.55;;;;;;;20.09;100.00;101671.03;5117559;28;20024;-37
2023/09/09 07:56:49;;;;;;;60.97;55.05;;;;;;;20.03;100.00;101677.63;5117564;28;20057;-37
2023/09/09 07:59:14;;;;;;;57.42;52.08;;;;;;;20.14;100.00;101676.50;5117945;28;20086;-37
2023/09/09 08:01:39;;;;;;;56.75;51.40;;;;;;;20.10;100.00;101686.38;5118038;28;20038;-37
2023/09/09 08:04:05;;;;;;;60.55;54.83;;;;;;;20.17;100.00;101681.47;5117101;28;20024;-38
2023/09/09 08:06:30;;;;;;;57.67;52.40;;;;;;;20.17;100.00;101686.97;5117680;28;20110;-37
2023/09/09 08:08:55;;;;;;;62.03;56.28;;;;;;;20.26;100.00;101682.56;5116601;28;20495;-36
2023/09/09 08:11:21;;;;;;;63.17;57.35;;;;;;;20.25;100.00;101675.44;5117250;28;20073;-36
2023/09/09 08:13:46;;;;;;;62.45;56.35;;;;;;;20.27;100.00;101669.66;5116980;28;20028;-36
2023/09/09 08:16:11;;;;;;;61.17;55.53;;;;;;;20.42;100.00;101682.53;5117003;28;20027;-36
2023/09/09 08:18:37;;;;;;;64.47;58.42;;;;;;;20.42;100.00;101682.53;5116750;28;20110;-36
2023/09/09 08:21:03;;;;;;;44.75;40.53;;;;;;;20.68;100.00;101673.16;5116726;28;20071;-36
2023/09/09 08:23:28;;;;;;;54.58;49.58;;;;;;;20.67;100.00;101678.97;5116699;28;20046;-36
2023/09/09 08:25:55;;;;;;;53.05;48.17;;;;;;;20.83;100.00;101684.13;5116589;28;20023;-36
2023/09/09 08:28:20;;;;;;;56.67;51.17;;;;;;;21.00;100.00;101686.56;5116576;28;20510;-36
2023/09/09 08:30:45;;;;;;;60.72;55.22;;;;;;;21.03;100.00;101677.75;5116035;28;20055;-36
2023/09/09 08:33:11;;;;;;;61.92;56.25;;;;;;;20.94;100.00;101684.94;5116816;28;20357;-36
2023/09/09 08:35:36;;;;;;;56.20;51.13;;;;;;;21.09;100.00;101689.56;5116147;28;20084;-36
2023/09/09 08:38:01;;;;;;;58.78;52.88;;;;;;;21.25;100.00;101682.06;5116777;28;20059;-36
2023/09/09 08:40:27;;;;;;;53.72;48.70;;;;;;;21.25;100.00;101668.28;5116842;28;20028;-36
2023/09/09 08:43:12;;;;;;;53.30;48.40;;;;;;;21.47;100.00;101673.41;5117190;28;20067;-37
2023/09/09 08:45:45;;;;;;;52.53;47.75;;;;;;;21.54;100.00;101671.19;5116838;28;20023;-36
2023/09/09 08:48:17;;;;;;;50.63;45.90;;;;;;;21.73;100.00;101696.13;5116266;27;20028;-36
2023/09/09 08:50:44;;;;;;;48.72;44.38;;;;;;;21.82;100.00;101695.22;5116830;28;20028;-36
2023/09/09 08:53:12;;;;;;;49.38;44.75;;;;;;;21.84;100.00;101701.25;5117015;28;20031;-36
2023/09/09 08:55:39;;;;;;;43.72;39.85;;;;;;;22.04;100.00;101694.78;5116085;27;20028;-36
2023/09/09 08:58:05;;;;;;;48.25;43.78;;;;;;;22.12;100.00;101690.63;5116592;28;20134;-36
2023/09/09 09:00:35;;;;;;;43.42;39.63;;;;;;;22.25;100.00;101697.41;5115806;28;20020;-36
2023/09/09 09:03:01;;;;;;;46.63;42.35;;;;;;;22.29;100.00;101703.97;5116309;28;20036;-36
2023/09/09 09:05:31;;;;;;;41.53;37.78;;;;;;;22.47;100.00;101694.19;5115919;27;20110;-37
2023/09/09 09:07:57;;;;;;;42.20;38.40;;;;;;;22.50;100.00;101683.41;5116731;28;20084;-37
2023/09/09 09:10:23;;;;;;;43.67;39.78;;;;;;;22.60;100.00;101696.25;5116393;28;20395;-37
2023/09/09 09:12:49;;;;;;;42.40;38.65;;;;;;;22.50;100.00;101683.41;5116010;28;20106;-36
2023/09/09 09:15:14;;;;;;;40.05;36.47;;;;;;;22.81;100.00;101703.19;5115745;28;20379;-36
2023/09/09 09:17:41;;;;;;;34.40;31.35;;;;;;;22.98;100.00;101707.44;5115707;28;20067;-36
2023/09/09 09:20:23;;;;;;;36.72;33.42;;;;;;;23.08;100.00;101707.31;5115556;28;20031;-36
2023/09/09 09:22:49;;;;;;;36.47;32.83;;;;;;;23.12;100.00;101698.16;5115904;28;20081;-36
2023/09/09 09:25:20;;;;;;;31.60;28.50;;;;;;;23.29;100.00;101705.97;5115692;28;20042;-37
2023/09/09 09:27:45;;;;;;;30.58;27.77;;;;;;;23.38;100.00;101706.94;5115816;28;20063;-37
2023/09/09 09:30:11;;;;;;;28.88;26.33;;;;;;;23.47;100.00;101709.84;5115457;28;20100;-37
2023/09/09 09:32:42;;;;;;;29.05;26.38;;;;;;;23.55;100.00;101709.19;5115886;28;20023;-36
2023/09/09 09:35:30;;;;;;;30.48;27.42;;;;;;;23.66;100.00;101695.25;5115316;28;20088;-36
2023/09/09 09:38:01;;;;;;;27.38;24.63;;;;;;;23.63;100.00;101693.91;5115284;28;20027;-37
2023/09/09 09:40:28;;;;;;;27.55;25.15;;;;;;;23.78;100.00;101701.16;5115464;28;20024;-36
2023/09/09 09:42:53;;;;;;;32.30;29.20;;;;;;;23.61;100.00;101696.13;5114337;28;20070;-36
2023/09/09 09:45:26;;;;;;;27.27;24.90;;;;;;;23.74;100.00;101698.19;5115072;28;20027;-36
2023/09/09 09:47:52;;;;;;;30.25;27.38;;;;;;;23.77;100.00;101700.34;5115085;28;20024;-36
2023/09/09 09:50:18;;;;;;;26.38;23.90;;;;;;;23.97;100.00;101703.91;5115065;28;20019;-36
2023/09/09 09:52:48;;;;;;;22.83;20.83;;;;;;;24.16;100.00;101704.72;5114937;28;20035;-37
2023/09/09 09:55:17;;;;;;;19.40;17.60;;;;;;;24.26;100.00;101696.25;5115238;28;20020;-37
2023/09/09 09:57:45;;;;;;;20.13;18.08;;;;;;;24.35;100.00;101704.63;5114687;28;20096;-37
2023/09/09 10:00:12;;;;;;;17.73;16.13;;;;;;;24.46;100.00;101697.84;5115179;28;20028;-36
2023/09/09 10:02:40;;;;;;;18.38;16.50;;;;;;;24.60;100.00;101708.94;5114869;28;20481;-37
2023/09/09 10:05:10;;;;;;;16.05;14.65;;;;;;;24.63;100.00;101709.13;5114398;28;20115;-37
2023/09/09 10:07:37;;;;;;;7.72;6.95;;;;;;;24.68;90.78;101705.47;5115618;28;20154;-37
2023/09/09 10:10:07;;;;;;;7.45;6.75;;;;;;;24.75;91.75;101705.06;5114745;28;20034;-37
2023/09/09 10:12:36;;;;;;;7.85;6.13;;;;;;;24.87;89.71;101700.66;5115207;28;20153;-36
2023/09/09 10:15:04;;;;;;;5.85;5.28;;;;;;;25.01;90.64;101689.59;5114326;28;20160;-36
2023/09/09 10:17:31;;;;;;;7.57;6.03;;;;;;;25.15;87.90;101703.47;5114495;28;20030;-37
2023/09/09 10:19:58;;;;;;;7.43;6.28;;;;;;;25.29;90.22;101693.19;5114454;28;20061;-37
2023/09/09 10:22:25;;;;;;;7.85;6.93;;;;;;;25.28;86.23;101699.03;5114170;28;20035;-37
2023/09/09 10:24:53;;;;;;;7.85;7.10;;;;;;;25.12;84.91;101693.81;5114733;28;20036;-37
2023/09/09 10:27:19;;;;;;;9.60;8.05;;;;;;;25.21;89.08;101688.38;5115238;28;20023;-37
2023/09/09 10:29:47;;;;;;;9.63;8.60;;;;;;;25.31;88.12;101690.13;5114348;28;20068;-37
2023/09/09 10:32:15;;;;;;;9.82;8.93;;;;;;;25.33;89.96;101691.44;5113986;28;20027;-37
2023/09/09 10:34:42;;;;;;;12.38;11.20;;;;;;;25.40;91.98;101686.28;5114285;28;20110;-37
2023/09/09 10:37:09;;;;;;;8.45;7.35;;;;;;;25.49;89.42;101688.34;5114537;28;20031;-37
2023/09/09 10:39:35;;;;;;;9.07;8.18;;;;;;;25.46;85.63;101675.94;5114697;28;20035;-37
2023/09/09 10:42:03;;;;;;;8.75;7.90;;;;;;;25.28;84.42;101688.78;5114270;28;20448;-37
2023/09/09 10:44:29;;;;;;;8.48;7.68;;;;;;;25.43;84.37;101691.22;5114480;28;20023;-37
2023/09/09 10:46:56;;;;;;;7.47;6.78;;;;;;;25.59;85.45;101690.88;5114420;28;20050;-37
2023/09/09 10:49:25;;;;;;;8.38;6.78;;;;;;;25.80;85.00;101694.81;5114381;28;20077;-37
2023/09/09 10:51:50;;;;;;;7.93;5.25;;;;;;;25.82;78.17;101689.00;5113833;28;20081;-37
2023/09/09 10:54:17;;;;;;;5.05;4.60;;;;;;;25.93;79.99;101682.88;5113901;28;20023;-37
2023/09/09 10:56:47;;;;;;;8.27;7.15;;;;;;;26.13;80.31;101684.31;5114272;28;20030;-37
2023/09/09 10:59:27;;;;;;;7.82;7.10;;;;;;;26.25;78.44;101689.28;5113980;28;20398;-37
2023/09/09 11:02:13;;;;;;;6.72;6.13;;;;;;;26.41;81.16;101685.00;5113712;28;20467;-37
2023/09/09 11:04:40;;;;;;;8.77;7.88;;;;;;;26.42;73.97;101686.66;5113834;28;20077;-37
2023/09/09 11:07:13;;;;;;;8.52;7.47;;;;;;;26.44;76.77;101684.38;5114165;28;20367;-37
2023/09/09 11:09:48;;;;;;;8.43;7.18;;;;;;;26.71;78.13;101674.22;5113782;28;20132;-37